Terminal Aerodrome Forecast
Issued by NWS New Orleans/Baton Rouge, LA

Home | Current Version | Previous Version | Text Only | Print | Product List | Glossary On
Versions: 1 2 3 4 5 6 7 8 9 10 11 12
000
FTUS44 KLIX 220500
TAFBTR
TAF
KBTR 220533Z 2206/2306 00000KT P6SM SKC
     FM220900 00000KT 4SM BR SCT070
     FM221300 33005KT P6SM SCT050
     FM221500 01008KT P6SM SCT030
      TEMPO 2215/2218 BKN035
     FM230000 03010KT P6SM FEW050=

USA.gov is the U.S. government's official web portal to all federal, state and local government web resources and services.